Time,TemperatureF,DewpointF,PressureIn,WindDirection,WindDirectionDegrees,WindSpeedMPH,WindSpeedGustMPH,Humidity,HourlyPrecipIn,Conditions,Clouds,dailyrainin,SoftwareType,DateUTC
2013-01-13 00:02:00,29.8,6.8,29.59,NW,308,10.7,10.7,37,0.00,,---,0.00,VWS V14.01,2013-01-13 06:02:00,
2013-01-13 00:07:00,29.8,6.8,29.59,NW,319,10.7,12.5,37,0.00,,---,0.00,VWS V14.01,2013-01-13 06:07:00,
2013-01-13 00:12:00,29.8,6.8,29.59,West,276,8.1,9.8,37,0.00,,---,0.00,VWS V14.01,2013-01-13 06:12:00,
2013-01-13 00:17:00,29.8,6.8,29.59,WNW,298,11.6,11.6,37,0.00,,---,0.00,VWS V14.01,2013-01-13 06:17:00,
2013-01-13 00:22:00,29.8,6.8,29.59,NW,306,7.2,8.1,37,0.00,,---,0.00,VWS V14.01,2013-01-13 06:22:00,
2013-01-13 00:27:00,29.8,6.8,29.56,NW,304,7.2,10.7,37,0.00,,---,0.00,VWS V14.01,2013-01-13 06:27:00,
2013-01-13 00:32:00,29.8,6.8,29.56,NW,304,6.3,10.7,37,0.00,,---,0.00,VWS V14.01,2013-01-13 06:32:00,
2013-01-13 00:37:00,29.8,6.8,29.56,WNW,303,7.2,7.2,37,0.00,,---,0.00,VWS V14.01,2013-01-13 06:37:00,
2013-01-13 00:42:00,29.8,6.8,29.56,WNW,289,6.3,6.3,37,0.00,,---,0.00,VWS V14.01,2013-01-13 06:42:00,
2013-01-13 00:47:00,29.8,6.8,29.56,WNW,291,9.8,9.8,37,0.00,,---,0.00,VWS V14.01,2013-01-13 06:47:00,
2013-01-13 00:52:00,29.8,6.8,29.56,West,279,6.3,7.2,37,0.00,,---,0.00,VWS V14.01,2013-01-13 06:52:00,
2013-01-13 00:57:00,29.8,6.8,29.56,NW,305,5.4,8.1,37,0.00,,---,0.00,VWS V14.01,2013-01-13 06:57:00,
2013-01-13 01:02:00,29.8,6.8,29.56,NW,324,10.7,11.6,37,0.00,,---,0.00,VWS V14.01,2013-01-13 07:02:00,
2013-01-13 01:07:00,29.8,6.8,29.56,WNW,285,8.1,8.1,37,0.00,,---,0.00,VWS V14.01,2013-01-13 07:07:00,
2013-01-13 01:12:00,29.8,6.8,29.56,NNW,327,7.2,7.2,37,0.00,,---,0.00,VWS V14.01,2013-01-13 07:12:00,
2013-01-13 01:17:00,29.8,6.8,29.56,NW,312,12.5,12.5,37,0.00,,---,0.00,VWS V14.01,2013-01-13 07:17:00,
2013-01-13 01:22:00,29.8,6.8,29.56,WNW,299,6.3,8.1,37,0.00,,---,0.00,VWS V14.01,2013-01-13 07:22:00,
2013-01-13 01:27:00,29.8,6.8,29.56,West,270,10.7,10.7,37,0.00,,---,0.00,VWS V14.01,2013-01-13 07:27:00,
2013-01-13 01:32:00,29.8,6.8,29.56,WNW,286,8.1,8.1,37,0.00,,---,0.00,VWS V14.01,2013-01-13 07:32:00,
2013-01-13 01:37:00,29.8,6.8,29.56,NNW,327,9.8,12.5,37,0.00,,---,0.00,VWS V14.01,2013-01-13 07:37:00,
2013-01-13 01:42:00,27.9,7.2,29.53,NW,315,10.7,11.6,41,0.00,,---,0.00,VWS V14.01,2013-01-13 07:42:00,
2013-01-13 01:47:00,27.9,7.8,29.53,NNW,338,8.1,8.9,42,0.00,,---,0.00,VWS V14.01,2013-01-13 07:47:00,
2013-01-13 01:52:00,27.9,7.8,29.53,NNW,343,6.3,8.1,42,0.00,,---,0.00,VWS V14.01,2013-01-13 07:52:00,
2013-01-13 01:57:00,27.9,7.8,29.53,NW,305,8.1,8.1,42,0.00,,---,0.00,VWS V14.01,2013-01-13 07:57:00,
2013-01-13 02:02:00,28.0,8.4,29.53,NW,314,7.2,9.8,43,0.00,,---,0.00,VWS V14.01,2013-01-13 08:02:00,
2013-01-13 02:07:00,28.0,8.4,29.53,NW,320,5.4,6.3,43,0.00,,---,0.00,VWS V14.01,2013-01-13 08:07:00,
2013-01-13 02:12:00,27.9,8.3,29.56,WNW,295,6.3,10.7,43,0.00,,---,0.00,VWS V14.01,2013-01-13 08:12:00,
2013-01-13 02:17:00,27.9,8.3,29.56,WNW,283,8.1,8.1,43,0.00,,---,0.00,VWS V14.01,2013-01-13 08:17:00,
2013-01-13 02:22:00,27.9,8.3,29.56,WNW,283,8.1,8.1,43,0.00,,---,0.00,VWS V14.01,2013-01-13 08:22:00,
2013-01-13 02:27:00,27.9,8.3,29.56,North,350,9.8,10.7,43,0.00,,---,0.00,VWS V14.01,2013-01-13 08:27:00,
2013-01-13 02:32:00,27.9,8.3,29.59,WNW,288,9.8,9.8,43,0.00,,---,0.00,VWS V14.01,2013-01-13 08:32:00,
2013-01-13 02:37:00,27.9,8.3,29.59,NW,308,8.9,11.6,43,0.00,,---,0.00,VWS V14.01,2013-01-13 08:37:00,
2013-01-13 02:42:00,26.8,4.0,29.59,WNW,299,6.3,9.8,37,0.00,,---,0.00,VWS V14.01,2013-01-13 08:42:00,
2013-01-13 02:47:00,27.0,4.8,29.59,West,276,6.3,6.3,38,0.00,,---,0.00,VWS V14.01,2013-01-13 08:47:00,
2013-01-13 02:52:00,26.4,4.3,29.59,WNW,289,12.5,15.2,38,0.00,,---,0.00,VWS V14.01,2013-01-13 08:52:00,
2013-01-13 02:57:00,26.2,3.5,29.59,West,270,7.2,10.7,37,0.00,,---,0.00,VWS V14.01,2013-01-13 08:57:00,
2013-01-13 03:02:00,26.2,4.1,29.59,WNW,300,10.7,10.7,38,0.00,,---,0.00,VWS V14.01,2013-01-13 09:02:00,
2013-01-13 03:07:00,26.2,4.7,29.59,WNW,284,5.4,7.2,39,0.00,,---,0.00,VWS V14.01,2013-01-13 09:07:00,
2013-01-13 03:12:00,26.4,4.8,29.56,NW,323,6.3,7.2,39,0.00,,---,0.00,VWS V14.01,2013-01-13 09:12:00,
2013-01-13 03:17:00,26.4,4.8,29.56,WNW,283,7.2,10.7,39,0.00,,---,0.00,VWS V14.01,2013-01-13 09:17:00,
2013-01-13 03:22:00,26.4,4.8,29.56,West,280,7.2,10.7,39,0.00,,---,0.00,VWS V14.01,2013-01-13 09:22:00,
2013-01-13 03:27:00,26.4,4.8,29.56,NW,322,5.4,10.7,39,0.00,,---,0.00,VWS V14.01,2013-01-13 09:27:00,
2013-01-13 03:32:00,26.4,4.8,29.56,WSW,257,6.3,6.3,39,0.00,,---,0.00,VWS V14.01,2013-01-13 09:32:00,
2013-01-13 03:37:00,26.4,4.8,29.56,West,274,6.3,6.3,39,0.00,,---,0.00,VWS V14.01,2013-01-13 09:37:00,
2013-01-13 03:42:00,26.4,4.8,29.59,WNW,284,6.3,7.2,39,0.00,,---,0.00,VWS V14.01,2013-01-13 09:42:00,
2013-01-13 03:47:00,26.4,4.8,29.59,WNW,303,8.1,8.1,39,0.00,,---,0.00,VWS V14.01,2013-01-13 09:47:00,
2013-01-13 03:52:00,26.4,4.8,29.59,WNW,291,8.9,10.7,39,0.00,,---,0.00,VWS V14.01,2013-01-13 09:52:00,
2013-01-13 03:57:00,26.4,4.8,29.59,WNW,301,11.6,11.6,39,0.00,,---,0.00,VWS V14.01,2013-01-13 09:57:00,
2013-01-13 04:02:00,26.4,4.8,29.59,WNW,286,7.2,7.2,39,0.00,,---,0.00,VWS V14.01,2013-01-13 10:02:00,
2013-01-13 04:07:00,26.4,4.8,29.59,West,268,6.3,7.2,39,0.00,,---,0.00,VWS V14.01,2013-01-13 10:07:00,
2013-01-13 04:12:00,26.4,4.8,29.59,West,271,11.6,11.6,39,0.00,,---,0.00,VWS V14.01,2013-01-13 10:12:00,
2013-01-13 04:17:00,26.4,4.8,29.59,West,264,7.2,7.2,39,0.00,,---,0.00,VWS V14.01,2013-01-13 10:17:00,
2013-01-13 04:22:00,26.4,4.8,29.59,West,267,11.6,11.6,39,0.00,,---,0.00,VWS V14.01,2013-01-13 10:22:00,
2013-01-13 04:27:00,26.4,4.8,29.62,West,268,10.7,10.7,39,0.00,,---,0.00,VWS V14.01,2013-01-13 10:27:00,
2013-01-13 04:32:00,26.4,4.8,29.62,West,273,10.7,11.6,39,0.00,,---,0.00,VWS V14.01,2013-01-13 10:32:00,
2013-01-13 04:37:00,26.4,4.8,29.62,West,259,15.2,15.2,39,0.00,,---,0.00,VWS V14.01,2013-01-13 10:37:00,
2013-01-13 04:42:00,25.2,2.0,29.65,WSW,241,11.6,11.6,36,0.00,,---,0.00,VWS V14.01,2013-01-13 10:42:00,
2013-01-13 04:47:00,25.2,2.6,29.65,West,265,8.1,9.8,37,0.00,,---,0.00,VWS V14.01,2013-01-13 10:47:00,
2013-01-13 04:52:00,25.2,2.6,29.65,WSW,246,11.6,15.2,37,0.00,,---,0.00,VWS V14.01,2013-01-13 10:52:00,
2013-01-13 04:57:00,24.8,1.6,29.65,SW,221,10.7,10.7,36,0.00,,---,0.00,VWS V14.01,2013-01-13 10:57:00,
2013-01-13 05:02:00,24.8,2.2,29.65,WSW,240,9.8,9.8,37,0.00,,---,0.00,VWS V14.01,2013-01-13 11:02:00,
2013-01-13 05:07:00,24.4,0.7,29.65,West,279,9.8,16.1,35,0.00,,---,0.00,VWS V14.01,2013-01-13 11:07:00,
2013-01-13 05:12:00,24.4,1.3,29.65,WNW,286,10.7,10.7,36,0.00,,---,0.00,VWS V14.01,2013-01-13 11:12:00,
2013-01-13 05:17:00,24.4,1.3,29.65,West,280,7.2,10.7,36,0.00,,---,0.00,VWS V14.01,2013-01-13 11:17:00,
2013-01-13 05:22:00,24.4,1.3,29.65,West,261,6.3,9.8,36,0.00,,---,0.00,VWS V14.01,2013-01-13 11:22:00,
2013-01-13 05:27:00,24.4,1.3,29.65,West,265,10.7,12.5,36,0.00,,---,0.00,VWS V14.01,2013-01-13 11:27:00,
2013-01-13 05:32:00,24.4,1.3,29.65,WNW,285,11.6,11.6,36,0.00,,---,0.00,VWS V14.01,2013-01-13 11:32:00,
2013-01-13 05:37:00,24.4,1.3,29.65,WNW,291,6.3,8.1,36,0.00,,---,0.00,VWS V14.01,2013-01-13 11:37:00,
2013-01-13 05:42:00,24.4,1.3,29.65,West,279,6.3,6.3,36,0.00,,---,0.00,VWS V14.01,2013-01-13 11:42:00,
2013-01-13 05:47:00,24.4,1.3,29.65,WNW,286,6.3,6.3,36,0.00,,---,0.00,VWS V14.01,2013-01-13 11:47:00,
2013-01-13 05:52:00,24.4,1.3,29.65,West,280,6.3,8.1,36,0.00,,---,0.00,VWS V14.01,2013-01-13 11:52:00,
2013-01-13 05:57:00,24.4,1.3,29.65,West,276,8.1,12.5,36,0.00,,---,0.00,VWS V14.01,2013-01-13 11:57:00,
2013-01-13 06:02:00,24.4,1.3,29.65,WSW,248,5.4,10.7,36,0.00,,---,0.00,VWS V14.01,2013-01-13 12:02:00,
2013-01-13 06:07:00,24.4,1.3,29.65,WNW,285,8.1,8.1,36,0.00,,---,0.00,VWS V14.01,2013-01-13 12:07:00,
2013-01-13 06:12:00,24.4,1.3,29.62,WNW,285,7.2,10.7,36,0.00,,---,0.00,VWS V14.01,2013-01-13 12:12:00,
2013-01-13 06:17:00,24.4,1.3,29.62,West,265,5.4,7.2,36,0.00,,---,0.00,VWS V14.01,2013-01-13 12:17:00,
2013-01-13 06:22:00,24.4,1.3,29.62,West,264,6.3,7.2,36,0.00,,---,0.00,VWS V14.01,2013-01-13 12:22:00,
2013-01-13 06:27:00,24.4,1.3,29.68,WNW,289,7.2,9.8,36,0.00,,---,0.00,VWS V14.01,2013-01-13 12:27:00,
2013-01-13 06:32:00,24.4,1.3,29.68,WSW,254,5.4,5.4,36,0.00,,---,0.00,VWS V14.01,2013-01-13 12:32:00,
2013-01-13 06:37:00,24.4,1.3,29.68,West,259,7.2,12.5,36,0.00,,---,0.00,VWS V14.01,2013-01-13 12:37:00,
2013-01-13 06:42:00,24.4,1.3,29.65,WNW,284,7.2,8.1,36,0.00,,---,0.00,VWS V14.01,2013-01-13 12:42:00,
2013-01-13 06:47:00,24.4,1.3,29.65,West,266,10.7,11.6,36,0.00,,---,0.00,VWS V14.01,2013-01-13 12:47:00,
2013-01-13 06:52:00,24.4,1.3,29.65,WNW,292,9.8,11.6,36,0.00,,---,0.00,VWS V14.01,2013-01-13 12:52:00,
2013-01-13 06:57:00,24.4,1.3,29.68,WSW,255,9.8,9.8,36,0.00,,---,0.00,VWS V14.01,2013-01-13 12:57:00,
2013-01-13 07:02:00,24.4,1.3,29.68,West,261,8.1,8.1,36,0.00,,---,0.00,VWS V14.01,2013-01-13 13:02:00,
2013-01-13 07:07:00,24.4,1.3,29.68,WSW,240,11.6,11.6,36,0.00,,---,0.00,VWS V14.01,2013-01-13 13:07:00,
2013-01-13 07:12:00,24.4,1.3,29.68,WNW,289,9.8,12.5,36,0.00,,---,0.00,VWS V14.01,2013-01-13 13:12:00,
2013-01-13 07:17:00,24.4,1.3,29.68,WNW,292,6.3,8.1,36,0.00,,---,0.00,VWS V14.01,2013-01-13 13:17:00,
2013-01-13 07:22:00,24.4,1.3,29.68,WNW,283,7.2,7.2,36,0.00,,---,0.00,VWS V14.01,2013-01-13 13:22:00,
2013-01-13 07:27:00,24.4,1.3,29.68,WSW,254,8.9,8.9,36,0.00,,---,0.00,VWS V14.01,2013-01-13 13:27:00,
2013-01-13 07:32:00,24.4,1.3,29.68,WNW,295,6.3,9.8,36,0.00,,---,0.00,VWS V14.01,2013-01-13 13:32:00,
2013-01-13 07:37:00,24.4,1.3,29.68,WNW,297,8.1,16.6,36,0.00,,---,0.00,VWS V14.01,2013-01-13 13:37:00,
2013-01-13 07:42:00,24.4,1.3,29.68,West,270,12.5,12.5,36,0.00,,---,0.00,VWS V14.01,2013-01-13 13:42:00,
2013-01-13 07:47:00,24.4,1.3,29.68,WNW,284,7.2,7.2,36,0.00,,---,0.00,VWS V14.01,2013-01-13 13:47:00,
2013-01-13 07:52:00,24.4,1.3,29.68,WNW,283,6.3,6.3,36,0.00,,---,0.00,VWS V14.01,2013-01-13 13:52:00,
2013-01-13 07:57:00,24.4,1.3,29.71,West,275,6.3,7.2,36,0.00,,---,0.00,VWS V14.01,2013-01-13 13:57:00,
2013-01-13 08:02:00,24.4,1.3,29.71,WNW,297,11.6,11.6,36,0.00,,---,0.00,VWS V14.01,2013-01-13 14:02:00,
2013-01-13 08:07:00,24.4,1.3,29.71,West,268,9.8,9.8,36,0.00,,---,0.00,VWS V14.01,2013-01-13 14:07:00,
2013-01-13 08:12:00,24.4,1.3,29.74,WNW,299,12.5,12.5,36,0.00,,---,0.00,VWS V14.01,2013-01-13 14:12:00,
2013-01-13 08:17:00,24.4,1.3,29.74,WNW,290,10.7,10.7,36,0.00,,---,0.00,VWS V14.01,2013-01-13 14:17:00,
2013-01-13 08:22:00,24.4,1.3,29.74,WSW,252,7.2,12.5,36,0.00,,---,0.00,VWS V14.01,2013-01-13 14:22:00,
2013-01-13 08:27:00,24.4,1.3,29.68,West,273,8.9,10.7,36,0.00,,---,0.00,VWS V14.01,2013-01-13 14:27:00,
2013-01-13 08:32:00,24.4,1.3,29.68,WNW,286,11.6,11.6,36,0.00,,---,0.00,VWS V14.01,2013-01-13 14:32:00,
2013-01-13 08:37:00,24.4,1.3,29.68,West,265,7.2,7.2,36,0.00,,---,0.00,VWS V14.01,2013-01-13 14:37:00,
2013-01-13 08:42:00,24.4,1.3,29.71,WSW,237,10.7,10.7,36,0.00,,---,0.00,VWS V14.01,2013-01-13 14:42:00,
2013-01-13 08:47:00,24.4,1.3,29.71,WSW,239,9.8,10.7,36,0.00,,---,0.00,VWS V14.01,2013-01-13 14:47:00,
2013-01-13 08:52:00,24.4,1.3,29.71,WNW,283,5.4,5.4,36,0.00,,---,0.00,VWS V14.01,2013-01-13 14:52:00,
2013-01-13 08:57:00,24.4,1.3,29.74,WSW,238,6.3,7.2,36,0.00,,---,0.00,VWS V14.01,2013-01-13 14:57:00,
2013-01-13 09:02:00,24.4,1.3,29.74,WNW,286,10.7,10.7,36,0.00,,---,0.00,VWS V14.01,2013-01-13 15:02:00,
2013-01-13 09:07:00,24.4,1.3,29.74,West,277,8.1,8.1,36,0.00,,---,0.00,VWS V14.01,2013-01-13 15:07:00,
2013-01-13 09:12:00,24.4,1.3,29.74,West,261,10.7,11.6,36,0.00,,---,0.00,VWS V14.01,2013-01-13 15:12:00,
2013-01-13 09:17:00,24.4,1.3,29.74,West,275,9.8,9.8,36,0.00,,---,0.00,VWS V14.01,2013-01-13 15:17:00,
2013-01-13 09:22:00,24.4,1.3,29.74,WSW,247,11.6,11.6,36,0.00,,---,0.00,VWS V14.01,2013-01-13 15:22:00,
2013-01-13 09:27:00,24.4,1.3,29.74,WSW,239,9.8,9.8,36,0.00,,---,0.00,VWS V14.01,2013-01-13 15:27:00,
2013-01-13 09:32:00,24.4,1.3,29.74,West,264,8.9,8.9,36,0.00,,---,0.00,VWS V14.01,2013-01-13 15:32:00,
2013-01-13 09:37:00,24.4,1.3,29.74,WNW,298,10.7,10.7,36,0.00,,---,0.00,VWS V14.01,2013-01-13 15:37:00,
2013-01-13 09:42:00,24.4,1.3,29.74,West,260,12.5,12.5,36,0.00,,---,0.00,VWS V14.01,2013-01-13 15:42:00,
2013-01-13 09:47:00,24.4,1.3,29.74,West,271,11.6,11.6,36,0.00,,---,0.00,VWS V14.01,2013-01-13 15:47:00,
2013-01-13 09:52:00,24.4,1.3,29.74,WSW,257,10.7,12.5,36,0.00,,---,0.00,VWS V14.01,2013-01-13 15:52:00,
2013-01-13 09:57:00,24.4,1.3,29.74,WSW,255,12.5,12.5,36,0.00,,---,0.00,VWS V14.01,2013-01-13 15:57:00,
2013-01-13 10:02:00,24.4,1.3,29.74,WSW,255,8.1,11.6,36,0.00,,---,0.00,VWS V14.01,2013-01-13 16:02:00,
2013-01-13 10:07:00,24.4,1.3,29.74,WSW,244,10.7,10.7,36,0.00,,---,0.00,VWS V14.01,2013-01-13 16:07:00,
2013-01-13 10:12:00,21.7,-2.9,29.74,West,265,9.8,9.8,33,0.00,,---,0.00,VWS V14.01,2013-01-13 16:12:00,
2013-01-13 10:17:00,21.6,-3.1,29.74,WNW,297,9.8,9.8,33,0.00,,---,0.00,VWS V14.01,2013-01-13 16:17:00,
2013-01-13 10:22:00,21.4,-3.2,29.74,WNW,284,8.1,8.1,33,0.00,,---,0.00,VWS V14.01,2013-01-13 16:22:00,
2013-01-13 10:27:00,21.2,-3.4,29.71,West,268,8.1,8.1,33,0.00,,---,0.00,VWS V14.01,2013-01-13 16:27:00,
2013-01-13 10:32:00,21.4,-3.2,29.71,WNW,283,8.1,8.1,33,0.00,,---,0.00,VWS V14.01,2013-01-13 16:32:00,
2013-01-13 10:37:00,21.0,-3.6,29.71,West,271,8.1,8.1,33,0.00,,---,0.00,VWS V14.01,2013-01-13 16:37:00,
2013-01-13 10:42:00,21.0,-3.6,29.74,WSW,256,10.7,10.7,33,0.00,,---,0.00,VWS V14.01,2013-01-13 16:42:00,
2013-01-13 10:47:00,21.0,-3.6,29.74,WSW,253,7.2,11.6,33,0.00,,---,0.00,VWS V14.01,2013-01-13 16:47:00,
2013-01-13 10:52:00,21.0,-3.6,29.74,WSW,258,8.1,8.1,33,0.00,,---,0.00,VWS V14.01,2013-01-13 16:52:00,
2013-01-13 10:57:00,21.0,-3.6,29.71,WNW,292,8.1,9.8,33,0.00,,---,0.00,VWS V14.01,2013-01-13 16:57:00,
2013-01-13 11:02:00,21.0,-3.6,29.71,WNW,288,7.2,9.8,33,0.00,,---,0.00,VWS V14.01,2013-01-13 17:02:00,
2013-01-13 11:07:00,21.0,-3.6,29.71,WNW,288,11.6,11.6,33,0.00,,---,0.00,VWS V14.01,2013-01-13 17:07:00,
2013-01-13 11:12:00,21.0,-3.6,29.71,WNW,286,9.8,12.5,33,0.00,,---,0.00,VWS V14.01,2013-01-13 17:12:00,
2013-01-13 11:17:00,21.0,-3.6,29.71,SW,234,8.1,11.6,33,0.00,,---,0.00,VWS V14.01,2013-01-13 17:17:00,
2013-01-13 11:22:00,21.0,-3.6,29.71,West,269,8.1,10.7,33,0.00,,---,0.00,VWS V14.01,2013-01-13 17:22:00,
2013-01-13 11:27:00,21.0,-3.6,29.71,WSW,255,9.8,11.6,33,0.00,,---,0.00,VWS V14.01,2013-01-13 17:27:00,
2013-01-13 11:32:00,21.0,-3.6,29.71,West,262,11.6,12.5,33,0.00,,---,0.00,VWS V14.01,2013-01-13 17:32:00,
2013-01-13 11:37:00,21.0,-3.6,29.71,WSW,257,9.8,9.8,33,0.00,,---,0.00,VWS V14.01,2013-01-13 17:37:00,
2013-01-13 11:42:00,21.0,-3.6,29.74,WNW,299,11.6,11.6,33,0.00,,---,0.00,VWS V14.01,2013-01-13 17:42:00,
2013-01-13 11:47:00,21.0,-3.6,29.74,West,276,15.2,15.2,33,0.00,,---,0.00,VWS V14.01,2013-01-13 17:47:00,
2013-01-13 11:52:00,21.0,-3.6,29.74,WSW,258,8.1,8.1,33,0.00,,---,0.00,VWS V14.01,2013-01-13 17:52:00,
2013-01-13 11:57:00,21.0,-3.6,29.74,WSW,248,13.4,13.4,33,0.00,,---,0.00,VWS V14.01,2013-01-13 17:57:00,
2013-01-13 12:02:00,21.0,-3.6,29.74,WNW,292,9.8,9.8,33,0.00,,---,0.00,VWS V14.01,2013-01-13 18:02:00,
2013-01-13 12:07:00,21.0,-3.6,29.74,West,259,10.7,13.4,33,0.00,,---,0.00,VWS V14.01,2013-01-13 18:07:00,
2013-01-13 12:12:00,21.0,-3.6,29.74,WSW,255,11.6,11.6,33,0.00,,---,0.00,VWS V14.01,2013-01-13 18:12:00,
2013-01-13 12:17:00,21.0,-3.6,29.74,WSW,250,10.7,10.7,33,0.00,,---,0.00,VWS V14.01,2013-01-13 18:17:00,
2013-01-13 12:22:00,21.0,-3.6,29.74,West,279,10.7,10.7,33,0.00,,---,0.00,VWS V14.01,2013-01-13 18:22:00,
2013-01-13 12:27:00,21.0,-3.6,29.74,West,281,10.7,10.7,33,0.00,,---,0.00,VWS V14.01,2013-01-13 18:27:00,
2013-01-13 12:32:00,21.0,-3.6,29.74,WSW,252,10.7,10.7,33,0.00,,---,0.00,VWS V14.01,2013-01-13 18:32:00,
2013-01-13 12:37:00,21.0,-3.6,29.74,West,261,6.3,7.2,33,0.00,,---,0.00,VWS V14.01,2013-01-13 18:37:00,
2013-01-13 12:42:00,21.0,-3.6,29.77,WSW,250,9.8,9.8,33,0.00,,---,0.00,VWS V14.01,2013-01-13 18:42:00,
2013-01-13 12:47:00,21.0,-3.6,29.77,WSW,239,8.1,8.1,33,0.00,,---,0.00,VWS V14.01,2013-01-13 18:47:00,
2013-01-13 12:52:00,21.0,-3.6,29.77,WSW,258,6.3,7.2,33,0.00,,---,0.00,VWS V14.01,2013-01-13 18:52:00,
2013-01-13 12:57:00,21.0,-3.6,29.77,WSW,253,10.7,10.7,33,0.00,,---,0.00,VWS V14.01,2013-01-13 18:57:00,
2013-01-13 13:02:00,21.0,-3.6,29.77,West,260,10.7,10.7,33,0.00,,---,0.00,VWS V14.01,2013-01-13 19:02:00,
2013-01-13 13:07:00,21.0,-3.6,29.77,WSW,242,8.1,8.1,33,0.00,,---,0.00,VWS V14.01,2013-01-13 19:07:00,
2013-01-13 13:12:00,18.9,-5.5,29.74,WNW,286,9.8,9.8,33,0.00,,---,0.00,VWS V14.01,2013-01-13 19:12:00,
2013-01-13 13:17:00,19.0,-5.3,29.74,West,268,7.2,10.7,33,0.00,,---,0.00,VWS V14.01,2013-01-13 19:17:00,
2013-01-13 13:22:00,18.5,-7.8,29.74,West,270,11.6,11.6,30,0.00,,---,0.00,VWS V14.01,2013-01-13 19:22:00,
2013-01-13 13:27:00,18.1,-9.5,29.74,WSW,238,15.2,15.2,28,0.00,,---,0.00,VWS V14.01,2013-01-13 19:27:00,
2013-01-13 13:32:00,18.5,-7.8,29.74,West,264,8.1,12.5,30,0.00,,---,0.00,VWS V14.01,2013-01-13 19:32:00,
2013-01-13 13:37:00,18.9,-7.4,29.74,West,274,9.8,11.6,30,0.00,,---,0.00,VWS V14.01,2013-01-13 19:37:00,
2013-01-13 13:42:00,18.7,-7.6,29.74,West,270,11.6,11.6,30,0.00,,---,0.00,VWS V14.01,2013-01-13 19:42:00,
2013-01-13 13:47:00,18.7,-7.6,29.74,WSW,248,12.5,12.5,30,0.00,,---,0.00,VWS V14.01,2013-01-13 19:47:00,
2013-01-13 13:52:00,18.7,-7.6,29.74,WSW,254,12.5,15.2,30,0.00,,---,0.00,VWS V14.01,2013-01-13 19:52:00,
2013-01-13 13:57:00,18.7,-7.6,29.74,WNW,300,11.6,11.6,30,0.00,,---,0.00,VWS V14.01,2013-01-13 19:57:00,
2013-01-13 14:01:00,18.7,-7.6,29.74,WSW,257,8.9,8.9,30,0.00,,---,0.00,VWS V14.01,2013-01-13 20:01:00,
2013-01-13 14:07:00,18.7,-7.6,29.74,West,265,11.6,11.6,30,0.00,,---,0.00,VWS V14.01,2013-01-13 20:07:00,
2013-01-13 14:11:00,18.7,-7.6,29.74,WNW,295,12.5,16.6,30,0.00,,---,0.00,VWS V14.01,2013-01-13 20:11:00,
2013-01-13 14:16:00,18.7,-7.6,29.74,WSW,254,9.8,11.6,30,0.00,,---,0.00,VWS V14.01,2013-01-13 20:16:00,
2013-01-13 14:21:00,18.7,-7.6,29.74,WSW,258,9.8,11.6,30,0.00,,---,0.00,VWS V14.01,2013-01-13 20:21:00,
2013-01-13 14:26:00,18.7,-7.6,29.74,WSW,258,16.6,17.4,30,0.00,,---,0.00,VWS V14.01,2013-01-13 20:26:00,
2013-01-13 14:31:00,18.7,-7.6,29.74,WNW,302,12.5,12.5,30,0.00,,---,0.00,VWS V14.01,2013-01-13 20:31:00,
2013-01-13 14:37:00,18.7,-7.6,29.74,West,270,11.6,11.6,30,0.00,,---,0.00,VWS V14.01,2013-01-13 20:37:00,
2013-01-13 14:42:00,18.7,-7.6,29.74,SW,229,16.1,16.1,30,0.00,,---,0.00,VWS V14.01,2013-01-13 20:42:00,
2013-01-13 14:46:00,18.7,-7.6,29.74,SW,227,11.6,11.6,30,0.00,,---,0.00,VWS V14.01,2013-01-13 20:46:00,
2013-01-13 14:52:00,18.7,-7.6,29.74,West,262,8.9,8.9,30,0.00,,---,0.00,VWS V14.01,2013-01-13 20:52:00,
2013-01-13 14:57:00,18.7,-7.6,29.74,West,263,12.5,16.1,30,0.00,,---,0.00,VWS V14.01,2013-01-13 20:57:00,
2013-01-13 15:01:00,18.7,-7.6,29.74,WSW,251,15.2,15.2,30,0.00,,---,0.00,VWS V14.01,2013-01-13 21:01:00,
2013-01-13 15:07:00,18.7,-7.6,29.74,WSW,246,15.2,15.2,30,0.00,,---,0.00,VWS V14.01,2013-01-13 21:07:00,
2013-01-13 15:11:00,18.7,-7.6,29.77,SSW,210,17.4,17.4,30,0.00,,---,0.00,VWS V14.01,2013-01-13 21:11:00,
2013-01-13 15:16:00,18.7,-7.6,29.77,WSW,245,16.6,16.6,30,0.00,,---,0.00,VWS V14.01,2013-01-13 21:16:00,
2013-01-13 15:22:00,18.7,-7.6,29.77,WSW,255,15.2,15.2,30,0.00,,---,0.00,VWS V14.01,2013-01-13 21:22:00,
2013-01-13 15:26:00,18.7,-7.6,29.77,WSW,258,15.2,15.2,30,0.00,,---,0.00,VWS V14.01,2013-01-13 21:26:00,
2013-01-13 15:31:00,18.7,-7.6,29.77,West,262,11.6,11.6,30,0.00,,---,0.00,VWS V14.01,2013-01-13 21:31:00,
2013-01-13 15:36:00,18.7,-7.6,29.77,WSW,243,11.6,16.1,30,0.00,,---,0.00,VWS V14.01,2013-01-13 21:36:00,
2013-01-13 15:41:00,18.7,-7.6,29.80,SW,233,12.5,12.5,30,0.00,,---,0.00,VWS V14.01,2013-01-13 21:41:00,
2013-01-13 15:46:00,18.7,-7.6,29.80,West,260,9.8,11.6,30,0.00,,---,0.00,VWS V14.01,2013-01-13 21:46:00,
2013-01-13 15:51:00,18.7,-7.6,29.80,West,262,15.2,15.2,30,0.00,,---,0.00,VWS V14.01,2013-01-13 21:51:00,
2013-01-13 15:56:00,18.7,-7.6,29.80,West,268,11.6,16.1,30,0.00,,---,0.00,VWS V14.01,2013-01-13 21:56:00,
2013-01-13 16:01:00,18.7,-7.6,29.80,WNW,287,16.1,16.1,30,0.00,,---,0.00,VWS V14.01,2013-01-13 22:01:00,
2013-01-13 16:06:00,18.7,-7.6,29.80,SW,231,16.6,16.6,30,0.00,,---,0.00,VWS V14.01,2013-01-13 22:06:00,
2013-01-13 16:11:00,18.7,-7.6,29.80,SW,235,15.2,15.2,30,0.00,,---,0.00,VWS V14.01,2013-01-13 22:11:00,
2013-01-13 16:16:00,18.7,-7.6,29.80,WSW,240,15.2,16.6,30,0.00,,---,0.00,VWS V14.01,2013-01-13 22:16:00,
2013-01-13 16:21:00,18.7,-7.6,29.80,WSW,253,11.6,16.1,30,0.00,,---,0.00,VWS V14.01,2013-01-13 22:21:00,
2013-01-13 16:26:00,18.7,-7.6,29.83,WSW,243,12.5,16.1,30,0.00,,---,0.00,VWS V14.01,2013-01-13 22:26:00,
2013-01-13 16:31:00,18.7,-7.6,29.83,West,271,12.5,16.1,30,0.00,,---,0.00,VWS V14.01,2013-01-13 22:31:00,
2013-01-13 16:36:00,18.7,-7.6,29.83,West,270,12.5,15.2,30,0.00,,---,0.00,VWS V14.01,2013-01-13 22:36:00,
2013-01-13 16:41:00,18.7,-7.6,29.83,WSW,246,11.6,14.3,30,0.00,,---,0.00,VWS V14.01,2013-01-13 22:41:00,
2013-01-13 16:46:00,18.7,-7.6,29.83,SW,235,9.8,11.6,30,0.00,,---,0.00,VWS V14.01,2013-01-13 22:46:00,
2013-01-13 16:51:00,18.7,-7.6,29.83,West,262,11.6,12.5,30,0.00,,---,0.00,VWS V14.01,2013-01-13 22:51:00,
2013-01-13 16:56:00,18.7,-7.6,29.83,SW,234,16.6,17.4,30,0.00,,---,0.00,VWS V14.01,2013-01-13 22:56:00,
2013-01-13 17:01:00,18.7,-7.6,29.83,West,259,14.3,16.1,30,0.00,,---,0.00,VWS V14.01,2013-01-13 23:01:00,
2013-01-13 17:06:00,18.7,-7.6,29.83,SW,232,12.5,12.5,30,0.00,,---,0.00,VWS V14.01,2013-01-13 23:06:00,
2013-01-13 17:11:00,18.7,-7.6,29.85,WSW,245,16.1,16.6,30,0.00,,---,0.00,VWS V14.01,2013-01-13 23:11:00,
2013-01-13 17:16:00,18.7,-7.6,29.85,SW,232,8.1,12.5,30,0.00,,---,0.00,VWS V14.01,2013-01-13 23:16:00,
2013-01-13 17:21:00,18.7,-7.6,29.85,SW,233,14.3,17.4,30,0.00,,---,0.00,VWS V14.01,2013-01-13 23:21:00,
2013-01-13 17:26:00,18.7,-7.6,29.85,West,266,17.4,17.4,30,0.00,,---,0.00,VWS V14.01,2013-01-13 23:26:00,
2013-01-13 17:31:00,18.7,-7.6,29.85,West,263,16.1,17.4,30,0.00,,---,0.00,VWS V14.01,2013-01-13 23:31:00,
2013-01-13 17:36:00,18.7,-7.6,29.85,West,265,16.1,16.6,30,0.00,,---,0.00,VWS V14.01,2013-01-13 23:36:00,
2013-01-13 17:41:00,18.7,-7.6,29.85,West,274,16.1,17.4,30,0.00,,---,0.00,VWS V14.01,2013-01-13 23:41:00,
2013-01-13 17:46:00,18.7,-7.6,29.85,WSW,254,12.5,19.2,30,0.00,,---,0.00,VWS V14.01,2013-01-13 23:46:00,
2013-01-13 17:51:00,18.7,-7.6,29.85,West,266,19.2,19.2,30,0.00,,---,0.00,VWS V14.01,2013-01-13 23:51:00,
2013-01-13 17:56:00,18.7,-7.6,29.85,West,274,16.6,16.6,30,0.00,,---,0.00,VWS V14.01,2013-01-13 23:56:00,
2013-01-13 18:01:00,18.7,-7.6,29.85,West,271,12.5,12.5,30,0.00,,---,0.00,VWS V14.01,2013-01-14 00:01:00,
2013-01-13 18:06:00,18.7,-7.6,29.85,SSW,206,15.2,15.2,30,0.00,,---,0.00,VWS V14.01,2013-01-14 00:06:00,
2013-01-13 18:11:00,16.7,-10.7,29.88,WNW,287,10.7,10.7,28,0.00,,---,0.00,VWS V14.01,2013-01-14 00:11:00,
2013-01-13 18:16:00,16.5,-10.9,29.88,WSW,246,10.7,16.1,28,0.00,,---,0.00,VWS V14.01,2013-01-14 00:16:00,
2013-01-13 18:21:00,16.2,-11.2,29.88,West,261,13.4,13.4,28,0.00,,---,0.00,VWS V14.01,2013-01-14 00:21:00,
2013-01-13 18:26:00,16.0,-11.4,29.88,WSW,252,20.1,20.1,28,0.00,,---,0.00,VWS V14.01,2013-01-14 00:26:00,
2013-01-13 18:31:00,15.8,-10.8,29.88,WSW,242,10.7,16.6,29,0.00,,---,0.00,VWS V14.01,2013-01-14 00:31:00,
2013-01-13 18:36:00,15.4,-13.3,29.88,WSW,255,17.4,20.1,26,0.00,,---,0.00,VWS V14.01,2013-01-14 00:36:00,
2013-01-13 18:41:00,15.3,-11.3,29.88,WSW,248,10.7,10.7,29,0.00,,---,0.00,VWS V14.01,2013-01-14 00:41:00,
2013-01-13 18:46:00,15.3,-11.3,29.88,West,260,15.2,15.2,29,0.00,,---,0.00,VWS V14.01,2013-01-14 00:46:00,
2013-01-13 18:51:00,15.3,-11.3,29.88,West,265,15.2,15.2,29,0.00,,---,0.00,VWS V14.01,2013-01-14 00:51:00,
2013-01-13 18:56:00,15.1,-11.4,29.88,WSW,250,7.2,8.1,29,0.00,,---,0.00,VWS V14.01,2013-01-14 00:56:00,
2013-01-13 19:01:00,15.1,-11.4,29.88,WSW,243,9.8,10.7,29,0.00,,---,0.00,VWS V14.01,2013-01-14 01:01:00,
2013-01-13 19:06:00,14.9,-11.6,29.88,SSW,200,9.8,12.5,29,0.00,,---,0.00,VWS V14.01,2013-01-14 01:06:00,
2013-01-13 19:11:00,14.9,-11.6,29.88,SW,233,9.8,9.8,29,0.00,,---,0.00,VWS V14.01,2013-01-14 01:11:00,
2013-01-13 19:16:00,14.9,-11.6,29.88,WSW,254,6.3,8.1,29,0.00,,---,0.00,VWS V14.01,2013-01-14 01:16:00,
2013-01-13 19:21:00,14.9,-11.6,29.88,WSW,256,12.5,12.5,29,0.00,,---,0.00,VWS V14.01,2013-01-14 01:21:00,
2013-01-13 19:26:00,14.9,-11.6,29.88,WSW,252,11.6,16.1,29,0.00,,---,0.00,VWS V14.01,2013-01-14 01:26:00,
2013-01-13 19:31:00,14.9,-11.6,29.88,WSW,246,11.6,12.5,29,0.00,,---,0.00,VWS V14.01,2013-01-14 01:31:00,
2013-01-13 19:36:00,14.9,-11.6,29.88,SW,227,15.2,15.2,29,0.00,,---,0.00,VWS V14.01,2013-01-14 01:36:00,
2013-01-13 19:41:00,14.9,-11.6,29.88,West,265,11.6,11.6,29,0.00,,---,0.00,VWS V14.01,2013-01-14 01:41:00,
2013-01-13 19:46:00,14.9,-11.6,29.88,WSW,253,11.6,16.6,29,0.00,,---,0.00,VWS V14.01,2013-01-14 01:46:00,
2013-01-13 19:51:00,14.9,-11.6,29.88,West,274,8.9,11.6,29,0.00,,---,0.00,VWS V14.01,2013-01-14 01:51:00,
2013-01-13 19:56:00,14.9,-11.6,29.88,WSW,240,9.8,9.8,29,0.00,,---,0.00,VWS V14.01,2013-01-14 01:56:00,
2013-01-13 20:01:00,14.9,-11.6,29.88,SW,224,11.6,15.2,29,0.00,,---,0.00,VWS V14.01,2013-01-14 02:01:00,
2013-01-13 20:06:00,14.9,-11.6,29.88,West,263,11.6,11.6,29,0.00,,---,0.00,VWS V14.01,2013-01-14 02:06:00,
2013-01-13 20:11:00,14.9,-11.6,29.91,West,276,11.6,12.5,29,0.00,,---,0.00,VWS V14.01,2013-01-14 02:11:00,
2013-01-13 20:16:00,14.9,-11.6,29.91,West,261,12.5,12.5,29,0.00,,---,0.00,VWS V14.01,2013-01-14 02:16:00,
2013-01-13 20:21:00,14.9,-11.6,29.91,West,259,11.6,11.6,29,0.00,,---,0.00,VWS V14.01,2013-01-14 02:21:00,
2013-01-13 20:26:00,14.9,-11.6,29.91,WNW,283,11.6,15.2,29,0.00,,---,0.00,VWS V14.01,2013-01-14 02:26:00,
2013-01-13 20:31:00,14.9,-11.6,29.91,WSW,241,8.1,11.6,29,0.00,,---,0.00,VWS V14.01,2013-01-14 02:31:00,
2013-01-13 20:36:00,14.9,-11.6,29.91,West,265,9.8,11.6,29,0.00,,---,0.00,VWS V14.01,2013-01-14 02:36:00,
2013-01-13 20:41:00,14.9,-11.6,29.91,West,266,11.6,11.6,29,0.00,,---,0.00,VWS V14.01,2013-01-14 02:41:00,
2013-01-13 20:46:00,14.9,-11.6,29.91,West,271,11.6,16.1,29,0.00,,---,0.00,VWS V14.01,2013-01-14 02:46:00,
2013-01-13 20:51:00,14.9,-11.6,29.91,WSW,245,12.5,12.5,29,0.00,,---,0.00,VWS V14.01,2013-01-14 02:51:00,
2013-01-13 20:56:00,14.9,-11.6,29.91,WSW,251,9.8,12.5,29,0.00,,---,0.00,VWS V14.01,2013-01-14 02:56:00,
2013-01-13 21:01:00,14.9,-11.6,29.91,SSW,204,15.2,16.6,29,0.00,,---,0.00,VWS V14.01,2013-01-14 03:01:00,
2013-01-13 21:06:00,14.9,-11.6,29.91,West,271,9.8,16.6,29,0.00,,---,0.00,VWS V14.01,2013-01-14 03:06:00,
2013-01-13 21:11:00,14.9,-11.6,29.91,WSW,241,12.5,12.5,29,0.00,,---,0.00,VWS V14.01,2013-01-14 03:11:00,
2013-01-13 21:16:00,14.9,-11.6,29.91,WSW,257,9.8,11.6,29,0.00,,---,0.00,VWS V14.01,2013-01-14 03:16:00,
2013-01-13 21:21:00,14.9,-11.6,29.91,WNW,283,12.5,12.5,29,0.00,,---,0.00,VWS V14.01,2013-01-14 03:21:00,
2013-01-13 21:26:00,14.9,-11.6,29.91,WSW,254,11.6,11.6,29,0.00,,---,0.00,VWS V14.01,2013-01-14 03:26:00,
2013-01-13 21:31:00,14.9,-11.6,29.91,WSW,255,11.6,11.6,29,0.00,,---,0.00,VWS V14.01,2013-01-14 03:31:00,
2013-01-13 21:36:00,14.9,-11.6,29.91,WSW,242,7.2,12.5,29,0.00,,---,0.00,VWS V14.01,2013-01-14 03:36:00,
2013-01-13 21:41:00,14.9,-11.6,29.94,West,259,9.8,11.6,29,0.00,,---,0.00,VWS V14.01,2013-01-14 03:41:00,
2013-01-13 21:46:00,14.9,-11.6,29.94,West,261,11.6,11.6,29,0.00,,---,0.00,VWS V14.01,2013-01-14 03:46:00,
2013-01-13 21:51:00,14.9,-11.6,29.94,WSW,243,12.5,20.1,29,0.00,,---,0.00,VWS V14.01,2013-01-14 03:51:00,
2013-01-13 21:56:00,14.9,-11.6,29.91,West,275,11.6,11.6,29,0.00,,---,0.00,VWS V14.01,2013-01-14 03:56:00,
2013-01-13 22:01:00,14.9,-11.6,29.91,WSW,244,12.5,12.5,29,0.00,,---,0.00,VWS V14.01,2013-01-14 04:01:00,
2013-01-13 22:06:00,14.9,-11.6,29.91,WNW,287,8.1,8.1,29,0.00,,---,0.00,VWS V14.01,2013-01-14 04:06:00,
2013-01-13 22:11:00,14.9,-11.6,29.91,WSW,256,12.5,12.5,29,0.00,,---,0.00,VWS V14.01,2013-01-14 04:11:00,
2013-01-13 22:16:00,14.9,-11.6,29.91,WSW,251,8.1,8.1,29,0.00,,---,0.00,VWS V14.01,2013-01-14 04:16:00,
2013-01-13 22:21:00,14.9,-11.6,29.91,WNW,289,12.5,12.5,29,0.00,,---,0.00,VWS V14.01,2013-01-14 04:21:00,
2013-01-13 22:26:00,14.9,-11.6,29.94,NW,304,5.4,9.8,29,0.00,,---,0.00,VWS V14.01,2013-01-14 04:26:00,
2013-01-13 22:31:00,14.9,-11.6,29.94,West,266,15.2,15.2,29,0.00,,---,0.00,VWS V14.01,2013-01-14 04:31:00,
2013-01-13 22:36:00,14.9,-11.6,29.94,WSW,253,12.5,12.5,29,0.00,,---,0.00,VWS V14.01,2013-01-14 04:36:00,
2013-01-13 22:41:00,14.9,-11.6,29.94,WSW,249,8.1,9.8,29,0.00,,---,0.00,VWS V14.01,2013-01-14 04:41:00,
2013-01-13 22:46:00,14.9,-11.6,29.94,WNW,299,11.6,12.5,29,0.00,,---,0.00,VWS V14.01,2013-01-14 04:46:00,
2013-01-13 22:51:00,14.9,-11.6,29.94,WSW,246,8.1,11.6,29,0.00,,---,0.00,VWS V14.01,2013-01-14 04:51:00,
2013-01-13 22:56:00,14.9,-11.6,29.94,West,266,7.2,8.1,29,0.00,,---,0.00,VWS V14.01,2013-01-14 04:56:00,
2013-01-13 23:00:00,14.9,-11.6,29.91,WSW,253,8.1,8.1,29,0.00,,---,0.00,VWS V14.01,2013-01-14 05:00:00,
2013-01-13 23:01:00,14.9,-11.6,29.91,West,263,8.1,9.8,29,0.00,,---,0.00,VWS V14.01,2013-01-14 05:01:00,
2013-01-13 23:02:00,14.9,-11.6,29.91,West,262,5.4,7.2,29,0.00,,---,0.00,VWS V14.01,2013-01-14 05:02:00,
2013-01-13 23:03:00,14.9,-11.6,29.91,WNW,288,5.4,5.4,29,0.00,,---,0.00,VWS V14.01,2013-01-14 05:03:00,
2013-01-13 23:08:00,14.9,-11.6,29.91,West,270,7.2,8.9,29,0.00,,---,0.00,VWS V14.01,2013-01-14 05:08:00,
2013-01-13 23:13:00,14.9,-11.6,29.94,West,276,7.2,11.6,29,0.00,,---,0.00,VWS V14.01,2013-01-14 05:13:00,
2013-01-13 23:18:00,14.9,-11.6,29.94,SW,233,8.1,8.1,29,0.00,,---,0.00,VWS V14.01,2013-01-14 05:18:00,
2013-01-13 23:23:00,14.9,-11.6,29.94,WSW,256,7.2,9.8,29,0.00,,---,0.00,VWS V14.01,2013-01-14 05:23:00,
2013-01-13 23:28:00,14.9,-11.6,29.94,WSW,249,5.4,9.8,29,0.00,,---,0.00,VWS V14.01,2013-01-14 05:28:00,
2013-01-13 23:33:00,14.9,-11.6,29.94,SW,220,11.6,11.6,29,0.00,,---,0.00,VWS V14.01,2013-01-14 05:33:00,
2013-01-13 23:38:00,14.9,-11.6,29.94,WSW,245,10.7,10.7,29,0.00,,---,0.00,VWS V14.01,2013-01-14 05:38:00,
2013-01-13 23:43:00,14.9,-11.6,29.94,WSW,245,10.7,10.7,29,0.00,,---,0.00,VWS V14.01,2013-01-14 05:43:00,
2013-01-13 23:48:00,14.9,-11.6,29.94,WSW,245,10.7,10.7,29,0.00,,---,0.00,VWS V14.01,2013-01-14 05:48:00,
2013-01-13 23:53:00,14.9,-11.6,29.94,WSW,245,10.7,10.7,29,0.00,,---,0.00,VWS V14.01,2013-01-14 05:53:00,
2013-01-13 23:58:00,14.9,-11.6,29.94,WSW,245,10.7,10.7,29,0.00,,---,0.00,VWS V14.01,2013-01-14 05:58:00,